Boston, Massachusetts
Traffic Map
Current Weather Conditions
Boston, Massachusetts
Few Clouds
Few Clouds
21°
Feels Like: 21°
Wind Chill: 21° Ceiling: Unl
Heat Index: 21° Visibility: 10mi
Dew Point: Wind: 10mph
Humidity: 29% Direction: 260° (W)
Pressure: 29.81in Gusts: 0mph
Raw Report DataKBOS 221554Z 26009KT 10SM FEW060 21/02 A2981 RMK AO2 SLP092 T02110022
Traffic Incident Summary
Active as of:
Severity:
Category:
InformationThere was an issue retrieving the traffic information for this location. Please try a different location or try again shortly.
Advertisements
Track Severe Weather on mobile